sensor_id;sensor_type;location;lat;lon;timestamp;P1;durP1;ratioP1;P2;durP2;ratioP2
50309;SDS011;36207;51.850;21.698;2024-02-21T00:00:52;11.70;;;4.60;;
50309;SDS011;36207;51.850;21.698;2024-02-21T00:03:38;10.00;;;4.60;;
50309;SDS011;36207;51.850;21.698;2024-02-21T00:06:04;10.30;;;4.40;;
50309;SDS011;36207;51.850;21.698;2024-02-21T00:08:30;9.90;;;4.70;;
50309;SDS011;36207;51.850;21.698;2024-02-21T00:10:56;9.50;;;4.40;;
50309;SDS011;36207;51.850;21.698;2024-02-21T00:13:22;9.00;;;4.30;;
50309;SDS011;36207;51.850;21.698;2024-02-21T00:15:48;10.60;;;4.60;;
50309;SDS011;36207;51.850;21.698;2024-02-21T00:18:16;11.80;;;4.50;;
50309;SDS011;36207;51.850;21.698;2024-02-21T00:20:42;12.90;;;4.50;;
50309;SDS011;36207;51.850;21.698;2024-02-21T00:23:08;10.40;;;4.30;;
50309;SDS011;36207;51.850;21.698;2024-02-21T00:25:34;9.70;;;4.10;;
50309;SDS011;36207;51.850;21.698;2024-02-21T00:28:00;10.90;;;4.50;;
50309;SDS011;36207;51.850;21.698;2024-02-21T00:30:25;9.60;;;4.70;;
50309;SDS011;36207;51.850;21.698;2024-02-21T00:32:51;10.00;;;4.20;;
50309;SDS011;36207;51.850;21.698;2024-02-21T00:35:17;11.60;;;4.10;;
50309;SDS011;36207;51.850;21.698;2024-02-21T00:37:43;10.10;;;4.40;;
50309;SDS011;36207;51.850;21.698;2024-02-21T00:40:09;10.10;;;4.30;;
50309;SDS011;36207;51.850;21.698;2024-02-21T00:42:36;11.90;;;4.40;;
50309;SDS011;36207;51.850;21.698;2024-02-21T00:45:02;9.50;;;4.20;;
50309;SDS011;36207;51.850;21.698;2024-02-21T00:47:28;9.70;;;4.30;;
50309;SDS011;36207;51.850;21.698;2024-02-21T00:49:54;10.70;;;4.60;;
50309;SDS011;36207;51.850;21.698;2024-02-21T00:52:20;10.10;;;4.00;;
50309;SDS011;36207;51.850;21.698;2024-02-21T00:54:46;11.30;;;4.50;;
50309;SDS011;36207;51.850;21.698;2024-02-21T00:57:14;12.20;;;4.60;;
50309;SDS011;36207;51.850;21.698;2024-02-21T00:59:40;12.00;;;4.30;;
50309;SDS011;36207;51.850;21.698;2024-02-21T01:02:07;12.10;;;4.70;;
50309;SDS011;36207;51.850;21.698;2024-02-21T01:04:34;12.10;;;4.80;;
50309;SDS011;36207;51.850;21.698;2024-02-21T01:07:00;13.30;;;4.80;;
50309;SDS011;36207;51.850;21.698;2024-02-21T01:09:26;12.80;;;4.60;;
50309;SDS011;36207;51.850;21.698;2024-02-21T01:11:52;13.50;;;4.90;;
50309;SDS011;36207;51.850;21.698;2024-02-21T01:14:18;12.00;;;5.00;;
50309;SDS011;36207;51.850;21.698;2024-02-21T01:16:44;10.40;;;4.80;;
50309;SDS011;36207;51.850;21.698;2024-02-21T01:19:10;11.70;;;4.80;;
50309;SDS011;36207;51.850;21.698;2024-02-21T01:21:36;13.50;;;4.70;;
50309;SDS011;36207;51.850;21.698;2024-02-21T01:24:02;16.00;;;5.00;;
50309;SDS011;36207;51.850;21.698;2024-02-21T01:26:28;12.70;;;4.80;;
50309;SDS011;36207;51.850;21.698;2024-02-21T01:28:54;9.50;;;4.70;;
50309;SDS011;36207;51.850;21.698;2024-02-21T01:31:20;11.70;;;4.60;;
50309;SDS011;36207;51.850;21.698;2024-02-21T01:33:46;11.30;;;4.70;;
50309;SDS011;36207;51.850;21.698;2024-02-21T01:36:12;11.30;;;4.40;;
50309;SDS011;36207;51.850;21.698;2024-02-21T01:38:37;11.90;;;4.90;;
50309;SDS011;36207;51.850;21.698;2024-02-21T01:41:03;15.60;;;5.70;;
50309;SDS011;36207;51.850;21.698;2024-02-21T01:43:29;11.60;;;4.90;;
50309;SDS011;36207;51.850;21.698;2024-02-21T01:45:56;13.20;;;5.20;;
50309;SDS011;36207;51.850;21.698;2024-02-21T01:48:23;14.20;;;5.20;;
50309;SDS011;36207;51.850;21.698;2024-02-21T01:50:50;14.40;;;5.00;;
50309;SDS011;36207;51.850;21.698;2024-02-21T01:53:22;14.50;;;5.20;;
50309;SDS011;36207;51.850;21.698;2024-02-21T01:55:50;15.80;;;5.30;;
50309;SDS011;36207;51.850;21.698;2024-02-21T01:58:17;13.90;;;4.90;;
50309;SDS011;36207;51.850;21.698;2024-02-21T02:00:45;16.70;;;4.90;;
50309;SDS011;36207;51.850;21.698;2024-02-21T02:03:13;14.00;;;5.60;;
50309;SDS011;36207;51.850;21.698;2024-02-21T02:05:46;13.00;;;5.30;;
50309;SDS011;36207;51.850;21.698;2024-02-21T02:08:17;13.10;;;5.20;;
50309;SDS011;36207;51.850;21.698;2024-02-21T02:10:44;13.40;;;5.20;;
50309;SDS011;36207;51.850;21.698;2024-02-21T02:13:14;14.20;;;5.50;;
50309;SDS011;36207;51.850;21.698;2024-02-21T02:15:41;11.80;;;4.90;;
50309;SDS011;36207;51.850;21.698;2024-02-21T02:18:11;14.90;;;5.40;;
50309;SDS011;36207;51.850;21.698;2024-02-21T02:20:37;15.10;;;5.20;;
50309;SDS011;36207;51.850;21.698;2024-02-21T02:23:08;16.40;;;5.50;;
50309;SDS011;36207;51.850;21.698;2024-02-21T02:25:36;15.50;;;5.20;;
50309;SDS011;36207;51.850;21.698;2024-02-21T02:28:04;13.10;;;5.60;;
50309;SDS011;36207;51.850;21.698;2024-02-21T02:30:32;13.60;;;5.20;;
50309;SDS011;36207;51.850;21.698;2024-02-21T02:32:59;13.10;;;5.20;;
50309;SDS011;36207;51.850;21.698;2024-02-21T02:35:25;12.50;;;5.30;;
50309;SDS011;36207;51.850;21.698;2024-02-21T02:37:51;13.50;;;5.20;;
50309;SDS011;36207;51.850;21.698;2024-02-21T02:40:18;11.40;;;5.00;;
50309;SDS011;36207;51.850;21.698;2024-02-21T02:42:44;11.60;;;4.90;;
50309;SDS011;36207;51.850;21.698;2024-02-21T02:45:10;15.90;;;5.60;;
50309;SDS011;36207;51.850;21.698;2024-02-21T02:47:36;15.50;;;5.50;;
50309;SDS011;36207;51.850;21.698;2024-02-21T02:50:02;15.70;;;4.80;;
50309;SDS011;36207;51.850;21.698;2024-02-21T02:52:28;13.90;;;5.10;;
50309;SDS011;36207;51.850;21.698;2024-02-21T02:54:53;14.80;;;5.10;;
50309;SDS011;36207;51.850;21.698;2024-02-21T02:57:21;13.50;;;5.20;;
50309;SDS011;36207;51.850;21.698;2024-02-21T02:59:50;16.60;;;5.40;;
50309;SDS011;36207;51.850;21.698;2024-02-21T03:02:17;16.70;;;4.90;;
50309;SDS011;36207;51.850;21.698;2024-02-21T03:04:43;13.30;;;5.30;;
50309;SDS011;36207;51.850;21.698;2024-02-21T03:07:11;13.60;;;5.30;;
50309;SDS011;36207;51.850;21.698;2024-02-21T03:09:37;13.20;;;5.30;;
50309;SDS011;36207;51.850;21.698;2024-02-21T03:12:04;14.90;;;5.90;;
50309;SDS011;36207;51.850;21.698;2024-02-21T03:14:31;14.00;;;5.50;;
50309;SDS011;36207;51.850;21.698;2024-02-21T03:16:58;14.90;;;5.70;;
50309;SDS011;36207;51.850;21.698;2024-02-21T03:19:25;16.40;;;5.30;;
50309;SDS011;36207;51.850;21.698;2024-02-21T03:21:51;12.60;;;5.50;;
50309;SDS011;36207;51.850;21.698;2024-02-21T03:24:18;14.20;;;5.80;;
50309;SDS011;36207;51.850;21.698;2024-02-21T03:26:44;12.10;;;5.30;;
50309;SDS011;36207;51.850;21.698;2024-02-21T03:29:15;13.30;;;5.70;;
50309;SDS011;36207;51.850;21.698;2024-02-21T03:31:42;16.60;;;5.90;;
50309;SDS011;36207;51.850;21.698;2024-02-21T03:34:10;12.60;;;6.00;;
50309;SDS011;36207;51.850;21.698;2024-02-21T03:36:36;13.40;;;5.60;;
50309;SDS011;36207;51.850;21.698;2024-02-21T03:39:02;14.70;;;6.20;;
50309;SDS011;36207;51.850;21.698;2024-02-21T03:41:28;12.80;;;5.90;;
50309;SDS011;36207;51.850;21.698;2024-02-21T03:43:54;13.70;;;6.40;;
50309;SDS011;36207;51.850;21.698;2024-02-21T03:46:20;13.30;;;6.60;;
50309;SDS011;36207;51.850;21.698;2024-02-21T03:48:46;14.50;;;6.30;;
50309;SDS011;36207;51.850;21.698;2024-02-21T03:51:12;13.40;;;6.60;;
50309;SDS011;36207;51.850;21.698;2024-02-21T03:53:38;15.90;;;6.80;;
50309;SDS011;36207;51.850;21.698;2024-02-21T03:56:04;13.30;;;6.50;;
50309;SDS011;36207;51.850;21.698;2024-02-21T03:58:30;13.50;;;6.60;;
50309;SDS011;36207;51.850;21.698;2024-02-21T04:00:56;13.30;;;6.60;;
50309;SDS011;36207;51.850;21.698;2024-02-21T04:03:22;12.90;;;6.40;;
50309;SDS011;36207;51.850;21.698;2024-02-21T04:05:48;12.30;;;6.50;;
50309;SDS011;36207;51.850;21.698;2024-02-21T04:08:14;16.30;;;7.60;;
50309;SDS011;36207;51.850;21.698;2024-02-21T04:10:40;14.70;;;7.10;;
50309;SDS011;36207;51.850;21.698;2024-02-21T04:13:06;18.00;;;7.40;;
50309;SDS011;36207;51.850;21.698;2024-02-21T04:15:32;15.50;;;7.30;;
50309;SDS011;36207;51.850;21.698;2024-02-21T04:17:58;14.60;;;7.30;;
50309;SDS011;36207;51.850;21.698;2024-02-21T04:20:24;14.40;;;6.90;;
50309;SDS011;36207;51.850;21.698;2024-02-21T04:22:50;18.40;;;7.30;;
50309;SDS011;36207;51.850;21.698;2024-02-21T04:25:16;17.20;;;7.50;;
50309;SDS011;36207;51.850;21.698;2024-02-21T04:27:42;11.80;;;6.80;;
50309;SDS011;36207;51.850;21.698;2024-02-21T04:30:08;14.00;;;7.00;;
50309;SDS011;36207;51.850;21.698;2024-02-21T04:32:35;15.30;;;7.40;;
50309;SDS011;36207;51.850;21.698;2024-02-21T04:35:01;15.60;;;7.00;;
50309;SDS011;36207;51.850;21.698;2024-02-21T04:37:27;15.10;;;6.90;;
50309;SDS011;36207;51.850;21.698;2024-02-21T04:39:53;18.60;;;7.80;;
50309;SDS011;36207;51.850;21.698;2024-02-21T04:42:19;16.50;;;7.70;;
50309;SDS011;36207;51.850;21.698;2024-02-21T04:44:45;17.60;;;7.50;;
50309;SDS011;36207;51.850;21.698;2024-02-21T04:47:11;16.30;;;7.50;;
50309;SDS011;36207;51.850;21.698;2024-02-21T04:49:37;16.10;;;7.60;;
50309;SDS011;36207;51.850;21.698;2024-02-21T04:52:02;16.00;;;8.40;;
50309;SDS011;36207;51.850;21.698;2024-02-21T04:54:29;15.80;;;7.50;;
50309;SDS011;36207;51.850;21.698;2024-02-21T04:56:55;17.40;;;8.10;;
50309;SDS011;36207;51.850;21.698;2024-02-21T04:59:20;16.30;;;8.30;;
50309;SDS011;36207;51.850;21.698;2024-02-21T05:01:46;20.40;;;8.50;;
50309;SDS011;36207;51.850;21.698;2024-02-21T05:04:12;14.00;;;7.70;;
50309;SDS011;36207;51.850;21.698;2024-02-21T05:06:39;18.90;;;8.70;;
50309;SDS011;36207;51.850;21.698;2024-02-21T05:09:06;18.90;;;9.40;;
50309;SDS011;36207;51.850;21.698;2024-02-21T05:11:32;20.30;;;8.90;;
50309;SDS011;36207;51.850;21.698;2024-02-21T05:13:58;19.90;;;8.80;;
50309;SDS011;36207;51.850;21.698;2024-02-21T05:16:24;17.80;;;9.20;;
50309;SDS011;36207;51.850;21.698;2024-02-21T05:18:50;16.50;;;8.70;;
50309;SDS011;36207;51.850;21.698;2024-02-21T05:21:15;17.80;;;8.80;;
50309;SDS011;36207;51.850;21.698;2024-02-21T05:23:41;19.40;;;9.00;;
50309;SDS011;36207;51.850;21.698;2024-02-21T05:26:07;17.50;;;8.90;;
50309;SDS011;36207;51.850;21.698;2024-02-21T05:28:33;16.50;;;8.30;;
50309;SDS011;36207;51.850;21.698;2024-02-21T05:30:59;17.90;;;8.90;;
50309;SDS011;36207;51.850;21.698;2024-02-21T05:33:25;17.10;;;8.50;;
50309;SDS011;36207;51.850;21.698;2024-02-21T05:35:51;18.30;;;9.10;;
50309;SDS011;36207;51.850;21.698;2024-02-21T05:38:17;20.30;;;8.90;;
50309;SDS011;36207;51.850;21.698;2024-02-21T05:40:46;17.70;;;8.40;;
50309;SDS011;36207;51.850;21.698;2024-02-21T05:43:13;20.40;;;9.00;;
50309;SDS011;36207;51.850;21.698;2024-02-21T05:45:39;18.50;;;9.10;;
50309;SDS011;36207;51.850;21.698;2024-02-21T05:48:05;14.90;;;8.70;;
50309;SDS011;36207;51.850;21.698;2024-02-21T05:50:31;19.50;;;8.40;;
50309;SDS011;36207;51.850;21.698;2024-02-21T05:52:57;17.50;;;8.50;;
50309;SDS011;36207;51.850;21.698;2024-02-21T05:55:23;17.20;;;8.60;;
50309;SDS011;36207;51.850;21.698;2024-02-21T05:57:49;21.20;;;8.70;;
50309;SDS011;36207;51.850;21.698;2024-02-21T06:00:15;17.30;;;7.80;;
50309;SDS011;36207;51.850;21.698;2024-02-21T06:02:42;15.90;;;7.90;;
50309;SDS011;36207;51.850;21.698;2024-02-21T06:05:08;15.70;;;8.00;;
50309;SDS011;36207;51.850;21.698;2024-02-21T06:07:34;15.50;;;7.60;;
50309;SDS011;36207;51.850;21.698;2024-02-21T06:10:03;15.90;;;7.70;;
50309;SDS011;36207;51.850;21.698;2024-02-21T06:12:30;16.70;;;8.10;;
50309;SDS011;36207;51.850;21.698;2024-02-21T06:14:56;16.70;;;7.60;;
50309;SDS011;36207;51.850;21.698;2024-02-21T06:17:22;17.00;;;8.40;;
50309;SDS011;36207;51.850;21.698;2024-02-21T06:19:48;16.20;;;8.20;;
50309;SDS011;36207;51.850;21.698;2024-02-21T06:22:14;20.40;;;8.10;;
50309;SDS011;36207;51.850;21.698;2024-02-21T06:24:40;17.10;;;7.90;;
50309;SDS011;36207;51.850;21.698;2024-02-21T06:27:06;16.40;;;8.70;;
50309;SDS011;36207;51.850;21.698;2024-02-21T06:29:32;19.10;;;8.40;;
50309;SDS011;36207;51.850;21.698;2024-02-21T06:31:59;17.80;;;8.50;;
50309;SDS011;36207;51.850;21.698;2024-02-21T06:34:25;19.30;;;8.60;;
50309;SDS011;36207;51.850;21.698;2024-02-21T06:36:51;17.50;;;8.80;;
50309;SDS011;36207;51.850;21.698;2024-02-21T06:39:17;22.50;;;9.00;;
50309;SDS011;36207;51.850;21.698;2024-02-21T06:41:43;19.70;;;9.30;;
50309;SDS011;36207;51.850;21.698;2024-02-21T06:44:09;18.30;;;9.50;;
50309;SDS011;36207;51.850;21.698;2024-02-21T06:46:35;24.00;;;11.20;;
50309;SDS011;36207;51.850;21.698;2024-02-21T06:49:01;24.40;;;11.60;;
50309;SDS011;36207;51.850;21.698;2024-02-21T06:51:31;23.40;;;11.40;;
50309;SDS011;36207;51.850;21.698;2024-02-21T06:53:57;21.50;;;11.50;;
50309;SDS011;36207;51.850;21.698;2024-02-21T06:56:23;25.30;;;12.00;;
50309;SDS011;36207;51.850;21.698;2024-02-21T06:58:57;21.80;;;11.70;;
50309;SDS011;36207;51.850;21.698;2024-02-21T07:01:23;27.20;;;11.40;;
50309;SDS011;36207;51.850;21.698;2024-02-21T07:03:50;22.70;;;10.60;;
50309;SDS011;36207;51.850;21.698;2024-02-21T07:06:16;22.30;;;11.00;;
50309;SDS011;36207;51.850;21.698;2024-02-21T07:08:42;25.00;;;11.70;;
50309;SDS011;36207;51.850;21.698;2024-02-21T07:11:08;27.50;;;11.30;;
50309;SDS011;36207;51.850;21.698;2024-02-21T07:13:34;26.60;;;11.30;;
50309;SDS011;36207;51.850;21.698;2024-02-21T07:16:00;22.30;;;11.20;;
50309;SDS011;36207;51.850;21.698;2024-02-21T07:18:26;23.00;;;11.40;;
50309;SDS011;36207;51.850;21.698;2024-02-21T07:20:52;23.30;;;11.90;;
50309;SDS011;36207;51.850;21.698;2024-02-21T07:23:18;24.40;;;11.10;;
50309;SDS011;36207;51.850;21.698;2024-02-21T07:25:44;23.70;;;10.50;;
50309;SDS011;36207;51.850;21.698;2024-02-21T07:28:11;24.70;;;10.70;;
50309;SDS011;36207;51.850;21.698;2024-02-21T07:30:38;25.30;;;11.40;;
50309;SDS011;36207;51.850;21.698;2024-02-21T07:33:04;21.10;;;11.00;;
50309;SDS011;36207;51.850;21.698;2024-02-21T07:35:32;23.10;;;11.80;;
50309;SDS011;36207;51.850;21.698;2024-02-21T07:37:58;24.90;;;11.60;;
50309;SDS011;36207;51.850;21.698;2024-02-21T07:40:24;29.60;;;11.60;;
50309;SDS011;36207;51.850;21.698;2024-02-21T07:42:50;28.00;;;13.10;;
50309;SDS011;36207;51.850;21.698;2024-02-21T07:45:16;22.70;;;11.90;;
50309;SDS011;36207;51.850;21.698;2024-02-21T07:47:44;25.60;;;11.50;;
50309;SDS011;36207;51.850;21.698;2024-02-21T07:50:10;25.10;;;11.80;;
50309;SDS011;36207;51.850;21.698;2024-02-21T07:52:35;23.00;;;12.70;;
50309;SDS011;36207;51.850;21.698;2024-02-21T07:55:01;26.60;;;12.30;;
50309;SDS011;36207;51.850;21.698;2024-02-21T07:57:28;24.40;;;12.00;;
50309;SDS011;36207;51.850;21.698;2024-02-21T07:59:55;23.70;;;12.40;;
50309;SDS011;36207;51.850;21.698;2024-02-21T08:02:20;29.30;;;12.40;;
50309;SDS011;36207;51.850;21.698;2024-02-21T08:04:47;24.80;;;12.00;;
50309;SDS011;36207;51.850;21.698;2024-02-21T08:07:13;26.70;;;12.40;;
50309;SDS011;36207;51.850;21.698;2024-02-21T08:09:39;25.00;;;12.00;;
50309;SDS011;36207;51.850;21.698;2024-02-21T08:12:05;25.40;;;12.20;;
50309;SDS011;36207;51.850;21.698;2024-02-21T08:14:32;24.50;;;11.10;;
50309;SDS011;36207;51.850;21.698;2024-02-21T08:16:58;24.00;;;11.90;;
50309;SDS011;36207;51.850;21.698;2024-02-21T08:19:25;22.70;;;10.70;;
50309;SDS011;36207;51.850;21.698;2024-02-21T08:21:51;28.60;;;12.80;;
50309;SDS011;36207;51.850;21.698;2024-02-21T08:24:17;26.10;;;11.80;;
50309;SDS011;36207;51.850;21.698;2024-02-21T08:26:43;23.80;;;11.50;;
50309;SDS011;36207;51.850;21.698;2024-02-21T08:29:12;27.80;;;12.60;;
50309;SDS011;36207;51.850;21.698;2024-02-21T08:31:38;22.60;;;11.50;;
50309;SDS011;36207;51.850;21.698;2024-02-21T08:34:04;25.00;;;11.60;;
50309;SDS011;36207;51.850;21.698;2024-02-21T08:36:30;27.00;;;11.40;;
50309;SDS011;36207;51.850;21.698;2024-02-21T08:38:58;23.90;;;11.60;;
50309;SDS011;36207;51.850;21.698;2024-02-21T08:41:24;23.40;;;11.50;;
50309;SDS011;36207;51.850;21.698;2024-02-21T08:43:50;24.10;;;11.60;;
50309;SDS011;36207;51.850;21.698;2024-02-21T08:46:17;26.10;;;11.40;;
50309;SDS011;36207;51.850;21.698;2024-02-21T08:48:43;26.30;;;11.60;;
50309;SDS011;36207;51.850;21.698;2024-02-21T08:51:13;27.70;;;11.20;;
50309;SDS011;36207;51.850;21.698;2024-02-21T08:53:39;28.20;;;12.30;;
50309;SDS011;36207;51.850;21.698;2024-02-21T08:56:05;27.00;;;11.30;;
50309;SDS011;36207;51.850;21.698;2024-02-21T08:58:33;23.90;;;11.40;;
50309;SDS011;36207;51.850;21.698;2024-02-21T09:01:01;24.80;;;12.50;;
50309;SDS011;36207;51.850;21.698;2024-02-21T09:03:27;26.20;;;11.60;;
50309;SDS011;36207;51.850;21.698;2024-02-21T09:05:53;26.10;;;11.70;;
50309;SDS011;36207;51.850;21.698;2024-02-21T09:08:18;25.90;;;12.10;;
50309;SDS011;36207;51.850;21.698;2024-02-21T09:10:44;25.70;;;11.40;;
50309;SDS011;36207;51.850;21.698;2024-02-21T09:13:10;27.40;;;11.00;;
50309;SDS011;36207;51.850;21.698;2024-02-21T09:15:36;26.70;;;11.80;;
50309;SDS011;36207;51.850;21.698;2024-02-21T09:18:02;28.90;;;11.90;;
50309;SDS011;36207;51.850;21.698;2024-02-21T09:20:28;24.40;;;11.30;;
50309;SDS011;36207;51.850;21.698;2024-02-21T09:22:55;23.50;;;10.90;;
50309;SDS011;36207;51.850;21.698;2024-02-21T09:25:20;25.20;;;11.00;;
50309;SDS011;36207;51.850;21.698;2024-02-21T09:27:46;25.00;;;11.20;;
50309;SDS011;36207;51.850;21.698;2024-02-21T09:30:12;26.50;;;10.70;;
50309;SDS011;36207;51.850;21.698;2024-02-21T09:32:39;25.60;;;10.70;;
50309;SDS011;36207;51.850;21.698;2024-02-21T09:35:05;25.70;;;10.60;;
50309;SDS011;36207;51.850;21.698;2024-02-21T09:37:31;25.10;;;10.20;;
50309;SDS011;36207;51.850;21.698;2024-02-21T09:39:57;23.80;;;11.20;;
50309;SDS011;36207;51.850;21.698;2024-02-21T09:42:24;25.80;;;11.20;;
50309;SDS011;36207;51.850;21.698;2024-02-21T09:45:23;27.50;;;11.60;;
50309;SDS011;36207;51.850;21.698;2024-02-21T09:47:50;27.00;;;10.80;;
50309;SDS011;36207;51.850;21.698;2024-02-21T09:50:21;27.60;;;11.70;;
50309;SDS011;36207;51.850;21.698;2024-02-21T09:52:51;25.90;;;11.90;;
50309;SDS011;36207;51.850;21.698;2024-02-21T09:55:19;26.60;;;11.80;;
50309;SDS011;36207;51.850;21.698;2024-02-21T09:57:46;27.10;;;12.00;;
50309;SDS011;36207;51.850;21.698;2024-02-21T10:00:13;28.30;;;10.90;;
50309;SDS011;36207;51.850;21.698;2024-02-21T10:05:14;25.60;;;12.00;;
50309;SDS011;36207;51.850;21.698;2024-02-21T10:07:41;25.30;;;10.80;;
50309;SDS011;36207;51.850;21.698;2024-02-21T10:10:07;22.90;;;10.20;;
50309;SDS011;36207;51.850;21.698;2024-02-21T10:12:33;26.80;;;10.60;;
50309;SDS011;36207;51.850;21.698;2024-02-21T10:15:00;33.00;;;9.90;;
50309;SDS011;36207;51.850;21.698;2024-02-21T10:17:31;24.80;;;10.00;;
50309;SDS011;36207;51.850;21.698;2024-02-21T10:20:10;26.90;;;10.80;;
50309;SDS011;36207;51.850;21.698;2024-02-21T10:22:40;24.40;;;9.80;;
50309;SDS011;36207;51.850;21.698;2024-02-21T10:25:06;27.60;;;9.60;;
50309;SDS011;36207;51.850;21.698;2024-02-21T10:27:33;25.20;;;10.20;;
50309;SDS011;36207;51.850;21.698;2024-02-21T10:29:59;25.40;;;10.00;;
50309;SDS011;36207;51.850;21.698;2024-02-21T10:32:25;23.30;;;9.40;;
50309;SDS011;36207;51.850;21.698;2024-02-21T10:35:00;23.60;;;9.40;;
50309;SDS011;36207;51.850;21.698;2024-02-21T10:37:34;24.40;;;9.50;;
50309;SDS011;36207;51.850;21.698;2024-02-21T10:40:00;27.80;;;10.40;;
50309;SDS011;36207;51.850;21.698;2024-02-21T10:42:28;27.50;;;10.40;;
50309;SDS011;36207;51.850;21.698;2024-02-21T10:45:00;25.20;;;9.80;;
50309;SDS011;36207;51.850;21.698;2024-02-21T10:47:30;23.10;;;9.50;;
50309;SDS011;36207;51.850;21.698;2024-02-21T10:50:01;29.70;;;10.20;;
50309;SDS011;36207;51.850;21.698;2024-02-21T10:55:20;25.10;;;9.30;;
50309;SDS011;36207;51.850;21.698;2024-02-21T10:57:52;19.40;;;9.20;;
50309;SDS011;36207;51.850;21.698;2024-02-21T11:00:19;26.10;;;10.10;;
50309;SDS011;36207;51.850;21.698;2024-02-21T11:02:46;21.40;;;9.10;;
50309;SDS011;36207;51.850;21.698;2024-02-21T11:05:13;20.90;;;9.30;;
50309;SDS011;36207;51.850;21.698;2024-02-21T11:07:40;25.00;;;9.40;;
50309;SDS011;36207;51.850;21.698;2024-02-21T11:10:19;21.00;;;9.20;;
50309;SDS011;36207;51.850;21.698;2024-02-21T11:12:48;24.30;;;9.20;;
50309;SDS011;36207;51.850;21.698;2024-02-21T11:15:14;22.90;;;9.60;;
50309;SDS011;36207;51.850;21.698;2024-02-21T11:17:40;19.20;;;9.30;;
50309;SDS011;36207;51.850;21.698;2024-02-21T11:20:15;23.50;;;10.10;;
50309;SDS011;36207;51.850;21.698;2024-02-21T11:22:44;24.90;;;10.40;;
50309;SDS011;36207;51.850;21.698;2024-02-21T11:25:09;24.40;;;10.30;;
50309;SDS011;36207;51.850;21.698;2024-02-21T11:27:37;24.10;;;10.90;;
50309;SDS011;36207;51.850;21.698;2024-02-21T11:30:04;25.90;;;13.30;;
50309;SDS011;36207;51.850;21.698;2024-02-21T11:32:31;26.40;;;10.70;;
50309;SDS011;36207;51.850;21.698;2024-02-21T11:35:01;22.90;;;9.80;;
50309;SDS011;36207;51.850;21.698;2024-02-21T11:37:29;19.60;;;9.10;;
50309;SDS011;36207;51.850;21.698;2024-02-21T11:39:59;23.90;;;10.00;;
50309;SDS011;36207;51.850;21.698;2024-02-21T11:42:26;23.10;;;10.20;;
50309;SDS011;36207;51.850;21.698;2024-02-21T11:44:54;21.60;;;9.60;;
50309;SDS011;36207;51.850;21.698;2024-02-21T11:47:24;23.60;;;8.80;;
50309;SDS011;36207;51.850;21.698;2024-02-21T11:49:50;21.80;;;9.00;;
50309;SDS011;36207;51.850;21.698;2024-02-21T11:52:22;25.30;;;9.30;;
50309;SDS011;36207;51.850;21.698;2024-02-21T11:54:53;22.60;;;9.30;;
50309;SDS011;36207;51.850;21.698;2024-02-21T11:57:21;21.80;;;8.80;;
50309;SDS011;36207;51.850;21.698;2024-02-21T11:59:47;28.60;;;9.40;;
50309;SDS011;36207;51.850;21.698;2024-02-21T12:02:15;19.00;;;8.50;;
50309;SDS011;36207;51.850;21.698;2024-02-21T12:04:41;24.70;;;8.80;;
50309;SDS011;36207;51.850;21.698;2024-02-21T12:07:09;23.80;;;8.90;;
50309;SDS011;36207;51.850;21.698;2024-02-21T12:09:35;23.20;;;8.40;;
50309;SDS011;36207;51.850;21.698;2024-02-21T12:12:02;23.20;;;8.10;;
50309;SDS011;36207;51.850;21.698;2024-02-21T12:14:30;19.50;;;8.90;;
50309;SDS011;36207;51.850;21.698;2024-02-21T12:17:00;21.50;;;8.70;;
50309;SDS011;36207;51.850;21.698;2024-02-21T12:19:30;20.00;;;8.30;;
50309;SDS011;36207;51.850;21.698;2024-02-21T12:22:01;23.10;;;8.50;;
50309;SDS011;36207;51.850;21.698;2024-02-21T12:24:31;22.90;;;9.30;;
50309;SDS011;36207;51.850;21.698;2024-02-21T12:26:57;19.50;;;7.80;;
50309;SDS011;36207;51.850;21.698;2024-02-21T12:29:29;23.60;;;8.50;;
50309;SDS011;36207;51.850;21.698;2024-02-21T12:31:55;18.70;;;8.30;;
50309;SDS011;36207;51.850;21.698;2024-02-21T12:34:23;17.70;;;8.20;;
50309;SDS011;36207;51.850;21.698;2024-02-21T12:36:50;18.00;;;8.50;;
50309;SDS011;36207;51.850;21.698;2024-02-21T12:39:17;22.50;;;9.10;;
50309;SDS011;36207;51.850;21.698;2024-02-21T12:41:43;18.50;;;8.60;;
50309;SDS011;36207;51.850;21.698;2024-02-21T12:44:10;21.10;;;9.20;;
50309;SDS011;36207;51.850;21.698;2024-02-21T12:46:37;25.10;;;9.50;;
50309;SDS011;36207;51.850;21.698;2024-02-21T12:49:05;23.10;;;8.50;;
50309;SDS011;36207;51.850;21.698;2024-02-21T12:51:32;19.90;;;8.20;;
50309;SDS011;36207;51.850;21.698;2024-02-21T12:53:59;19.20;;;7.80;;
50309;SDS011;36207;51.850;21.698;2024-02-21T12:56:25;19.10;;;7.90;;
50309;SDS011;36207;51.850;21.698;2024-02-21T12:58:57;19.90;;;8.20;;
50309;SDS011;36207;51.850;21.698;2024-02-21T13:01:23;19.60;;;8.70;;
50309;SDS011;36207;51.850;21.698;2024-02-21T13:03:49;22.50;;;9.10;;
50309;SDS011;36207;51.850;21.698;2024-02-21T13:06:15;18.90;;;8.90;;
50309;SDS011;36207;51.850;21.698;2024-02-21T13:08:41;21.30;;;9.10;;
50309;SDS011;36207;51.850;21.698;2024-02-21T13:11:07;22.40;;;9.30;;
50309;SDS011;36207;51.850;21.698;2024-02-21T13:13:33;23.90;;;9.60;;
50309;SDS011;36207;51.850;21.698;2024-02-21T13:15:59;20.00;;;9.30;;
50309;SDS011;36207;51.850;21.698;2024-02-21T13:18:25;25.80;;;10.20;;
50309;SDS011;36207;51.850;21.698;2024-02-21T13:20:51;19.70;;;9.70;;
50309;SDS011;36207;51.850;21.698;2024-02-21T13:23:17;18.10;;;9.00;;
50309;SDS011;36207;51.850;21.698;2024-02-21T13:25:43;26.40;;;10.10;;
50309;SDS011;36207;51.850;21.698;2024-02-21T13:28:11;22.60;;;10.10;;
50309;SDS011;36207;51.850;21.698;2024-02-21T13:30:37;24.70;;;10.20;;
50309;SDS011;36207;51.850;21.698;2024-02-21T13:33:03;20.50;;;9.70;;
50309;SDS011;36207;51.850;21.698;2024-02-21T13:35:31;24.60;;;9.50;;
50309;SDS011;36207;51.850;21.698;2024-02-21T13:37:57;19.90;;;9.80;;
50309;SDS011;36207;51.850;21.698;2024-02-21T13:40:23;26.50;;;10.70;;
50309;SDS011;36207;51.850;21.698;2024-02-21T13:42:51;20.30;;;10.00;;
50309;SDS011;36207;51.850;21.698;2024-02-21T13:45:17;20.10;;;9.80;;
50309;SDS011;36207;51.850;21.698;2024-02-21T13:47:43;23.10;;;10.10;;
50309;SDS011;36207;51.850;21.698;2024-02-21T13:50:09;23.80;;;10.10;;
50309;SDS011;36207;51.850;21.698;2024-02-21T13:52:36;19.50;;;10.00;;
50309;SDS011;36207;51.850;21.698;2024-02-21T13:55:03;23.70;;;9.80;;
50309;SDS011;36207;51.850;21.698;2024-02-21T13:57:29;22.30;;;9.90;;
50309;SDS011;36207;51.850;21.698;2024-02-21T13:59:55;24.20;;;9.60;;
50309;SDS011;36207;51.850;21.698;2024-02-21T14:02:21;21.70;;;10.70;;
50309;SDS011;36207;51.850;21.698;2024-02-21T14:04:47;22.30;;;10.10;;
50309;SDS011;36207;51.850;21.698;2024-02-21T14:07:13;24.20;;;10.10;;
50309;SDS011;36207;51.850;21.698;2024-02-21T14:09:39;23.50;;;10.10;;
50309;SDS011;36207;51.850;21.698;2024-02-21T14:12:05;25.10;;;10.00;;
50309;SDS011;36207;51.850;21.698;2024-02-21T14:14:36;19.90;;;9.90;;
50309;SDS011;36207;51.850;21.698;2024-02-21T14:17:03;26.00;;;10.70;;
50309;SDS011;36207;51.850;21.698;2024-02-21T14:19:30;22.40;;;9.80;;
50309;SDS011;36207;51.850;21.698;2024-02-21T14:21:56;23.00;;;10.20;;